Holts Summit, Missouri
Current Conditions -  °F | °C
As of 3:53 PM on Monday 20 Oct 2014 (Local Time) from KJEF Reporting Station
Clear Clear  
Wind Chill: 75°   Ceiling: Unl
Heat Index: 75°   Visibility: 10mi
Dew Point: 43°   Wind: 8mph
Humidity: 32%   Direction: 330°NNW
Pressure: 29.98"   Gusts: NA
Location:  38.64°N, 92.12°W
Report Text: KJEF 202053Z 33007KT 10SM CLR 24/06 A2998 RMK AO2 SLP141 T02390061 55010
Loading
Personal Weather Stations






























Interactive Weather Map New forecast layout! Learn more

10-Day Weather Forecast

Advertisements
Track Severe Weather on mobile